createdAt,value
2022-11-22T00:01:18.671Z,98888.25
2022-11-22T00:03:45.014Z,98878.97
2022-11-22T00:06:11.341Z,98875.81
2022-11-22T00:08:37.672Z,98869.50
2022-11-22T00:11:04.020Z,98867.38
2022-11-22T00:13:30.359Z,98878.34
2022-11-22T00:15:58.861Z,98864.41
2022-11-22T00:18:25.200Z,98867.34
2022-11-22T00:20:51.557Z,98862.31
2022-11-22T00:23:17.886Z,98858.56
2022-11-22T00:25:45.356Z,98858.72
2022-11-22T00:28:11.701Z,98868.50
2022-11-22T00:30:38.041Z,98850.28
2022-11-22T00:33:04.428Z,98853.38
2022-11-22T00:35:30.842Z,98849.19
2022-11-22T00:37:57.166Z,98855.91
2022-11-22T00:40:23.510Z,98856.78
2022-11-22T00:42:49.837Z,98852.84
2022-11-22T00:45:16.209Z,98843.22
2022-11-22T00:47:42.546Z,98836.47
2022-11-22T00:50:09.790Z,98830.47
2022-11-22T00:52:36.134Z,98831.03
2022-11-22T00:55:02.530Z,98843.16
2022-11-22T00:57:28.875Z,98840.75
2022-11-22T00:59:55.221Z,98845.19
2022-11-22T01:02:21.606Z,98842.88
2022-11-22T01:04:47.979Z,98852.06
2022-11-22T01:07:14.371Z,98850.13
2022-11-22T01:09:40.837Z,98849.81
2022-11-22T01:12:07.262Z,98861.16
2022-11-22T01:14:33.770Z,98868.97
2022-11-22T01:17:00.332Z,98866.53
2022-11-22T01:19:26.761Z,98870.81
2022-11-22T01:21:53.111Z,98875.41
2022-11-22T01:24:19.461Z,98880.13
2022-11-22T01:26:45.927Z,98880.13
2022-11-22T01:29:12.283Z,98866.72
2022-11-22T01:31:38.624Z,98867.84
2022-11-22T01:34:05.492Z,98862.91
2022-11-22T01:36:31.847Z,98871.13
2022-11-22T01:38:58.210Z,98865.28
2022-11-22T01:41:24.598Z,98863.34
2022-11-22T01:43:50.944Z,98870.81
2022-11-22T01:46:34.319Z,98878.56
2022-11-22T01:49:14.371Z,98863.56
2022-11-22T01:51:46.396Z,98861.53
2022-11-22T01:54:17.444Z,98860.31
2022-11-22T01:56:47.978Z,98859.22
2022-11-22T01:59:19.431Z,98851.97
2022-11-22T02:01:46.004Z,98860.66
2022-11-22T02:04:15.659Z,98856.06
2022-11-22T02:07:01.518Z,98860.66
2022-11-22T02:09:29.680Z,98874.19
2022-11-22T02:11:58.355Z,98865.84
2022-11-22T02:14:27.315Z,98878.28
2022-11-22T02:16:53.937Z,98887.78
2022-11-22T02:19:31.823Z,98871.63
2022-11-22T02:22:06.438Z,98871.84
2022-11-22T02:24:45.477Z,98895.00
2022-11-22T02:27:11.857Z,98895.38
2022-11-22T02:29:38.807Z,98883.53
2022-11-22T02:32:05.215Z,98883.88
2022-11-22T02:34:44.310Z,98883.72
2022-11-22T02:37:13.711Z,98894.56
2022-11-22T02:39:41.696Z,98898.06
2022-11-22T02:42:08.136Z,98900.34
2022-11-22T02:44:34.597Z,98901.78
2022-11-22T02:47:00.994Z,98903.44
2022-11-22T02:49:27.371Z,98904.03
2022-11-22T02:51:53.798Z,98909.38
2022-11-22T02:54:20.209Z,98915.97
2022-11-22T02:56:47.124Z,98921.88
2022-11-22T02:59:13.843Z,98927.84
2022-11-22T03:01:40.905Z,98934.19
2022-11-22T03:04:07.297Z,98927.31
2022-11-22T03:06:33.712Z,98933.47
2022-11-22T03:09:00.166Z,98937.69
2022-11-22T03:11:26.628Z,98935.56
2022-11-22T03:13:52.991Z,98933.09
2022-11-22T03:16:19.330Z,98928.50
2022-11-22T03:18:45.681Z,98933.69
2022-11-22T03:21:12.287Z,98928.59
2022-11-22T03:23:38.708Z,98932.38
2022-11-22T03:26:11.888Z,98946.91
2022-11-22T03:28:38.292Z,98944.72
2022-11-22T03:31:06.216Z,98941.34
2022-11-22T03:33:33.716Z,98950.03
2022-11-22T03:36:00.163Z,98955.09
2022-11-22T03:38:26.505Z,98963.84
2022-11-22T03:40:52.838Z,98961.19
2022-11-22T03:43:19.192Z,98971.44
2022-11-22T03:45:46.947Z,98966.91
2022-11-22T03:48:13.944Z,98970.66
2022-11-22T03:50:40.443Z,98972.22
2022-11-22T03:53:07.083Z,98965.22
2022-11-22T03:55:33.791Z,98972.75
2022-11-22T03:58:00.230Z,98980.72
2022-11-22T04:00:26.666Z,98971.69
2022-11-22T04:02:53.021Z,98981.41
2022-11-22T04:05:19.386Z,98982.91
2022-11-22T04:07:45.762Z,98987.03
2022-11-22T04:10:13.043Z,98984.97
2022-11-22T04:12:40.770Z,98994.19
2022-11-22T04:15:07.480Z,98994.31
2022-11-22T04:17:40.546Z,98994.31
2022-11-22T04:20:28.016Z,98995.53
2022-11-22T04:22:57.994Z,98990.13
2022-11-22T04:25:27.314Z,98990.50
2022-11-22T04:27:53.971Z,98990.38
2022-11-22T04:30:21.106Z,98986.28
2022-11-22T04:32:47.821Z,98991.63
2022-11-22T04:35:18.366Z,98993.09
2022-11-22T04:37:50.977Z,99000.22
2022-11-22T04:40:17.406Z,98999.59
2022-11-22T04:43:02.209Z,99001.44
2022-11-22T04:45:28.540Z,99001.91
2022-11-22T04:48:00.730Z,99002.28
2022-11-22T04:50:48.361Z,99012.69
2022-11-22T04:53:15.792Z,99008.47
2022-11-22T04:55:44.540Z,99001.44
2022-11-22T04:58:11.656Z,98998.78
2022-11-22T05:00:38.669Z,99008.69
2022-11-22T05:03:05.810Z,98997.34
2022-11-22T05:05:36.558Z,99004.81
2022-11-22T05:08:03.828Z,99014.38
2022-11-22T05:10:50.339Z,99014.38
2022-11-22T05:13:17.857Z,99016.16
2022-11-22T05:15:44.286Z,99007.25
2022-11-22T05:18:10.894Z,99006.53
2022-11-22T05:20:37.314Z,99005.31
2022-11-22T05:23:22.679Z,99004.47
2022-11-22T05:25:49.134Z,98998.34
2022-11-22T05:28:15.511Z,98992.88
2022-11-22T05:30:42.219Z,98999.19
2022-11-22T05:33:08.555Z,99004.00
2022-11-22T05:35:34.945Z,98999.44
2022-11-22T05:38:01.262Z,98996.03
2022-11-22T05:40:27.637Z,98998.56
2022-11-22T05:42:53.972Z,98997.00
2022-11-22T05:45:20.315Z,99006.78
2022-11-22T05:47:46.679Z,99006.88
2022-11-22T05:50:13.297Z,99015.72
2022-11-22T05:52:39.641Z,99020.91
2022-11-22T05:55:06.613Z,99019.47
2022-11-22T05:57:33.040Z,99016.81
2022-11-22T05:59:59.546Z,99025.47
2022-11-22T06:02:26.328Z,99032.00
2022-11-22T06:04:52.706Z,99029.34
2022-11-22T06:07:19.143Z,99041.66
2022-11-22T06:09:45.493Z,99042.72
2022-11-22T06:12:11.825Z,99042.03
2022-11-22T06:14:43.002Z,99043.81
2022-11-22T06:17:09.946Z,99048.44
2022-11-22T06:19:36.375Z,99048.66
2022-11-22T06:22:03.586Z,99050.84
2022-11-22T06:24:29.976Z,99053.03
2022-11-22T06:26:56.302Z,99055.69
2022-11-22T06:29:22.637Z,99053.97
2022-11-22T06:31:48.957Z,99058.34
2022-11-22T06:34:15.313Z,99057.25
2022-11-22T06:36:41.670Z,99060.25
2022-11-22T06:39:08.101Z,99061.47
2022-11-22T06:41:37.078Z,99066.41
2022-11-22T06:44:05.924Z,99063.41
2022-11-22T06:46:32.780Z,99060.63
2022-11-22T06:48:59.139Z,99056.97
2022-11-22T06:51:30.446Z,99054.34
2022-11-22T06:53:58.063Z,99056.75
2022-11-22T06:56:33.027Z,99063.25
2022-11-22T06:59:03.743Z,99060.97
2022-11-22T07:01:31.021Z,99070.75
2022-11-22T07:03:59.273Z,99070.97
2022-11-22T07:06:31.304Z,99076.81
2022-11-22T07:08:59.461Z,99078.09
2022-11-22T07:11:28.366Z,99082.69
2022-11-22T07:14:01.722Z,99101.63
2022-11-22T07:16:31.939Z,99084.41
2022-11-22T07:18:59.538Z,99090.78
2022-11-22T07:21:26.733Z,99089.81
2022-11-22T07:23:54.678Z,99091.38
2022-11-22T07:26:23.675Z,99088.13
2022-11-22T07:28:50.005Z,99095.00
2022-11-22T07:31:17.427Z,99097.69
2022-11-22T07:33:44.672Z,99105.03
2022-11-22T07:36:13.686Z,99100.19
2022-11-22T07:38:40.631Z,99097.69
2022-11-22T07:41:08.036Z,99095.25
2022-11-22T07:43:35.030Z,99093.44
2022-11-22T07:46:02.954Z,99106.94
2022-11-22T07:48:29.553Z,99109.97
2022-11-22T07:50:55.974Z,99107.66
2022-11-22T07:53:22.343Z,99113.22
2022-11-22T07:55:48.737Z,99113.34
2022-11-22T07:58:15.070Z,99114.78
2022-11-22T08:00:41.418Z,99113.69
2022-11-22T08:03:08.714Z,99105.88
2022-11-22T08:05:35.109Z,99097.69
2022-11-22T08:08:01.452Z,99109.25
2022-11-22T08:10:27.802Z,99113.25
2022-11-22T08:12:54.150Z,99108.66
2022-11-22T08:15:20.664Z,99101.31
2022-11-22T08:17:47.029Z,99111.06
2022-11-22T08:20:13.666Z,99108.72
2022-11-22T08:22:40.825Z,99116.53
2022-11-22T08:25:12.379Z,99107.13
2022-11-22T08:27:43.053Z,99105.91
2022-11-22T08:30:11.435Z,99114.97
2022-11-22T08:32:38.271Z,99110.25
2022-11-22T08:35:05.344Z,99107.84
2022-11-22T08:37:31.730Z,99112.66
2022-11-22T08:39:58.075Z,99117.84
2022-11-22T08:42:24.473Z,99114.31
2022-11-22T08:44:50.933Z,99113.72
2022-11-22T08:47:17.407Z,99118.78
2022-11-22T08:49:43.789Z,99124.66
2022-11-22T08:52:10.202Z,99129.50
2022-11-22T08:54:38.108Z,99130.81
2022-11-22T08:57:05.138Z,99131.03
2022-11-22T08:59:31.856Z,99124.97
2022-11-22T09:01:58.516Z,99130.47
2022-11-22T09:04:24.943Z,99137.94
2022-11-22T09:09:38.335Z,99141.94
2022-11-22T09:12:05.340Z,99131.34
2022-11-22T09:14:31.823Z,99136.03
2022-11-22T09:16:58.233Z,99136.25
2022-11-22T09:19:24.647Z,99144.53
2022-11-22T09:21:50.981Z,99138.50
2022-11-22T09:24:17.421Z,99146.56
2022-11-22T09:26:43.771Z,99144.38
2022-11-22T09:29:10.272Z,99148.03
2022-11-22T09:31:36.597Z,99160.25
2022-11-22T09:34:03.077Z,99154.75
2022-11-22T09:36:29.487Z,99162.59
2022-11-22T09:38:56.813Z,99160.63
2022-11-22T09:41:39.979Z,99173.50
2022-11-22T09:44:23.488Z,99173.34
2022-11-22T09:46:58.283Z,99168.88
2022-11-22T09:50:10.101Z,99167.88
2022-11-22T09:52:43.972Z,99165.94
2022-11-22T09:55:45.258Z,99164.59
2022-11-22T09:58:28.479Z,99173.75
2022-11-22T10:01:02.105Z,99156.34
2022-11-22T10:03:57.497Z,99170.75
2022-11-22T10:06:31.990Z,99175.53
2022-11-22T10:09:20.621Z,99159.25
2022-11-22T10:12:09.472Z,99168.84
2022-11-22T10:14:57.550Z,99164.03
2022-11-22T10:17:36.624Z,99166.03
2022-11-22T10:20:11.150Z,99166.50
2022-11-22T10:22:37.563Z,99182.59
2022-11-22T10:25:14.844Z,99173.50
2022-11-22T10:27:41.879Z,99179.34
2022-11-22T10:30:20.259Z,99167.63
2022-11-22T10:32:52.576Z,99162.31
2022-11-22T10:35:42.651Z,99152.66
2022-11-22T10:38:25.792Z,99153.59
2022-11-22T10:41:11.744Z,99136.13
2022-11-22T10:43:55.287Z,99147.56
2022-11-22T10:46:43.288Z,99139.56
2022-11-22T10:49:37.565Z,99138.31
2022-11-22T10:52:16.985Z,99128.00
2022-11-22T10:55:22.190Z,99128.97
2022-11-22T10:57:59.898Z,99126.31
2022-11-22T11:00:29.525Z,99122.66
2022-11-22T11:03:06.100Z,99118.88
2022-11-22T11:06:00.779Z,99121.00
2022-11-22T11:09:02.523Z,99113.09
2022-11-22T11:11:26.584Z,99114.53
2022-11-22T11:13:58.879Z,99103.00
2022-11-22T11:16:28.733Z,99104.13
2022-11-22T11:19:16.815Z,99094.59
2022-11-22T11:21:43.841Z,99090.06
2022-11-22T11:24:14.956Z,99086.97
2022-11-22T11:26:43.958Z,99090.19
2022-11-22T11:29:19.333Z,99092.16
2022-11-22T11:31:50.794Z,99087.34
2022-11-22T11:34:28.962Z,99089.03
2022-11-22T11:37:00.975Z,99073.94
2022-11-22T11:39:36.267Z,99075.47
2022-11-22T11:42:22.448Z,99077.88
2022-11-22T11:44:48.812Z,99078.81
2022-11-22T11:47:34.841Z,99090.34
2022-11-22T11:50:01.234Z,99080.22
2022-11-22T11:52:29.697Z,99081.22
2022-11-22T11:55:02.234Z,99080.53
2022-11-22T11:57:36.183Z,99084.84
2022-11-22T12:00:06.706Z,99076.56
2022-11-22T12:02:41.833Z,99083.75
2022-11-22T12:05:14.063Z,99087.53
2022-11-22T12:07:44.556Z,99076.50
2022-11-22T12:10:47.550Z,99081.91
2022-11-22T12:13:30.045Z,99088.81
2022-11-22T12:16:22.432Z,99090.91
2022-11-22T12:19:04.306Z,99085.56
2022-11-22T12:21:53.477Z,99094.38
2022-11-22T12:25:16.571Z,99095.66
2022-11-22T12:27:37.157Z,99085.00
2022-11-22T12:30:03.828Z,99089.06
2022-11-22T12:32:43.650Z,99089.09
2022-11-22T12:35:20.287Z,99093.28
2022-11-22T12:38:08.434Z,99084.31
2022-11-22T12:40:55.590Z,99080.22
2022-11-22T12:43:29.630Z,99078.25
2022-11-22T12:46:05.680Z,99078.22
2022-11-22T12:48:48.768Z,99079.78
2022-11-22T12:51:24.675Z,99088.19
2022-11-22T12:53:53.080Z,99086.41
2022-11-22T12:56:29.816Z,99077.81
2022-11-22T12:59:11.373Z,99080.63
2022-11-22T13:01:52.045Z,99090.63
2022-11-22T13:04:26.330Z,99093.28
2022-11-22T13:06:58.474Z,99087.13
2022-11-22T13:09:31.352Z,99088.25
2022-11-22T13:12:03.546Z,99072.66
2022-11-22T13:14:47.508Z,99085.44
2022-11-22T13:17:17.160Z,99080.38
2022-11-22T13:19:55.220Z,99090.91
2022-11-22T13:22:28.719Z,99087.94
2022-11-22T13:25:01.036Z,99083.91
2022-11-22T13:27:44.773Z,99084.44
2022-11-22T13:30:22.850Z,99090.47
2022-11-22T13:32:55.424Z,99092.56
2022-11-22T13:35:32.204Z,99091.84
2022-11-22T13:38:09.482Z,99082.03
2022-11-22T13:40:45.102Z,99082.28
2022-11-22T13:43:15.616Z,99086.25
2022-11-22T13:45:51.453Z,99087.09
2022-11-22T13:48:40.288Z,99088.50
2022-11-22T13:51:18.529Z,99082.56
2022-11-22T13:53:46.666Z,99078.66
2022-11-22T13:56:16.019Z,99078.38
2022-11-22T13:58:51.136Z,99081.59
2022-11-22T14:01:36.267Z,99083.81
2022-11-22T14:04:19.677Z,99084.25
2022-11-22T14:07:09.237Z,99080.75
2022-11-22T14:09:38.072Z,99082.88
2022-11-22T14:12:10.495Z,99078.91
2022-11-22T14:15:10.786Z,99082.03
2022-11-22T14:17:52.308Z,99081.31
2022-11-22T14:20:46.551Z,99075.00
2022-11-22T14:23:40.697Z,99081.53
2022-11-22T14:26:21.401Z,99079.06
2022-11-22T14:29:19.176Z,99079.63
2022-11-22T14:32:00.583Z,99074.88
2022-11-22T14:34:30.220Z,99084.53
2022-11-22T14:37:18.116Z,99078.03
2022-11-22T14:39:44.419Z,99069.53
2022-11-22T14:42:35.633Z,99070.66
2022-11-22T14:45:04.873Z,99082.03
2022-11-22T14:47:35.218Z,99073.03
2022-11-22T14:50:04.744Z,99076.19
2022-11-22T14:52:32.936Z,99077.91
2022-11-22T14:55:02.487Z,99082.03
2022-11-22T14:57:31.762Z,99077.91
2022-11-22T15:00:23.989Z,99074.81
2022-11-22T15:03:38.278Z,99079.84
2022-11-22T15:09:14.561Z,99086.44
2022-11-22T15:09:53.536Z,99081.66
2022-11-22T15:12:50.713Z,99081.66
2022-11-22T15:59:46.795Z,99085.69
2022-11-22T16:02:16.637Z,99088.09
2022-11-22T16:06:05.693Z,99086.38
2022-11-22T16:07:48.025Z,99090.28
2022-11-22T16:10:26.451Z,99088.59
2022-11-22T16:12:53.609Z,99098.56
2022-11-22T16:15:37.026Z,99097.19
2022-11-22T16:18:27.399Z,99095.50
2022-11-22T16:21:02.245Z,99104.19
2022-11-22T16:23:31.195Z,99106.56
2022-11-22T16:26:17.082Z,99115.56
2022-11-22T16:28:43.701Z,99117.34
2022-11-22T16:31:17.395Z,99104.75
2022-11-22T16:33:44.577Z,99117.13
2022-11-22T16:36:16.220Z,99114.44
2022-11-22T16:38:43.696Z,99112.50
2022-11-22T16:41:29.138Z,99113.47
2022-11-22T16:44:11.552Z,99114.16
2022-11-22T16:46:39.715Z,99117.81
2022-11-22T16:49:20.562Z,99117.69
2022-11-22T16:51:48.529Z,99121.59
2022-11-22T16:56:44.828Z,99131.69
2022-11-22T16:59:14.662Z,99130.69
2022-11-22T17:01:42.616Z,99136.19
2022-11-22T17:04:23.601Z,99150.06
2022-11-22T17:06:50.326Z,99143.63
2022-11-22T17:09:16.753Z,99148.84
2022-11-22T17:11:44.505Z,99147.41
2022-11-22T17:14:14.517Z,99142.78
2022-11-22T17:16:42.213Z,99152.88
2022-11-22T17:19:30.276Z,99148.91
2022-11-22T17:21:55.878Z,99143.00
2022-11-22T17:24:23.696Z,99148.19
2022-11-22T17:26:50.074Z,99143.84
2022-11-22T17:29:35.286Z,99145.81
2022-11-22T17:32:02.807Z,99163.34
2022-11-22T17:34:29.753Z,99164.63
2022-11-22T17:36:56.355Z,99162.19
2022-11-22T17:39:22.715Z,99164.03
2022-11-22T17:41:49.408Z,99165.13
2022-11-22T17:44:17.849Z,99179.69
2022-11-22T17:46:44.217Z,99185.22
2022-11-22T17:49:15.635Z,99188.59
2022-11-22T17:51:42.907Z,99181.91
2022-11-22T17:54:09.464Z,99178.78
2022-11-22T17:56:37.122Z,99184.00
2022-11-22T17:59:04.163Z,99194.03
2022-11-22T18:01:30.530Z,99190.28
2022-11-22T18:03:57.059Z,99194.09
2022-11-22T18:06:23.441Z,99197.66
2022-11-22T18:08:49.854Z,99199.38
2022-11-22T18:11:16.463Z,99198.06
2022-11-22T18:13:43.703Z,99206.25
2022-11-22T18:16:13.970Z,99205.19
2022-11-22T18:18:57.571Z,99212.56
2022-11-22T18:21:25.506Z,99212.91
2022-11-22T18:23:51.937Z,99217.06
2022-11-22T18:31:52.662Z,99211.31
2022-11-22T18:34:19.747Z,99219.41
2022-11-22T18:37:03.909Z,99217.03
2022-11-22T18:39:36.808Z,99212.34
2022-11-22T18:42:08.708Z,99209.94
2022-11-22T18:44:35.111Z,99208.22
2022-11-22T18:47:01.897Z,99212.97
2022-11-22T18:49:28.447Z,99206.09
2022-11-22T18:51:55.549Z,99209.81
2022-11-22T18:54:22.706Z,99211.25
2022-11-22T18:56:50.090Z,99208.84
2022-11-22T18:59:17.127Z,99208.97
2022-11-22T19:01:43.552Z,99215.84
2022-11-22T19:04:14.034Z,99218.41
2022-11-22T19:06:41.744Z,99227.50
2022-11-22T19:09:08.971Z,99219.97
2022-11-22T19:11:35.611Z,99225.56
2022-11-22T19:14:02.248Z,99222.16
2022-11-22T19:16:30.001Z,99230.34
2022-11-22T19:18:57.546Z,99221.91
2022-11-22T19:21:26.729Z,99224.31
2022-11-22T19:23:54.059Z,99228.78
2022-11-22T19:26:23.226Z,99221.66
2022-11-22T19:28:52.009Z,99223.25
2022-11-22T19:31:21.139Z,99226.75
2022-11-22T19:33:48.236Z,99221.41
2022-11-22T19:36:20.655Z,99218.88
2022-11-22T19:38:47.883Z,99217.78
2022-11-22T19:41:20.044Z,99218.38
2022-11-22T19:43:47.943Z,99221.63
2022-11-22T19:46:15.070Z,99224.91
2022-11-22T19:48:46.866Z,99216.72
2022-11-22T19:51:15.462Z,99215.47
2022-11-22T19:53:42.063Z,99222.88
2022-11-22T19:56:17.380Z,99220.34
2022-11-22T19:58:49.440Z,99223.47
2022-11-22T20:01:16.554Z,99227.13
2022-11-22T20:03:43.803Z,99224.91
2022-11-22T20:06:12.706Z,99229.06
2022-11-22T20:08:39.666Z,99227.84
2022-11-22T20:11:13.945Z,99227.38
2022-11-22T20:13:43.193Z,99223.63
2022-11-22T20:16:12.274Z,99223.63
2022-11-22T20:18:38.660Z,99223.25
2022-11-22T20:21:07.037Z,99228.69
2022-11-22T20:23:33.655Z,99225.41
2022-11-22T20:26:10.753Z,99224.09
2022-11-22T20:28:42.056Z,99227.47
2022-11-22T20:31:11.239Z,99224.72
2022-11-22T20:33:40.122Z,99228.94
2022-11-22T20:36:28.102Z,99231.47
2022-11-22T20:38:55.303Z,99226.03
2022-11-22T20:41:24.706Z,99237.41
2022-11-22T20:43:51.864Z,99230.34
2022-11-22T20:46:20.871Z,99237.75
2022-11-22T20:48:48.886Z,99240.13
2022-11-22T20:51:21.063Z,99234.44
2022-11-22T20:53:47.749Z,99242.88
2022-11-22T20:56:14.985Z,99235.63
2022-11-22T20:58:42.356Z,99243.00
2022-11-22T21:01:17.506Z,99240.94
2022-11-22T21:03:44.621Z,99243.00
2022-11-22T21:06:12.562Z,99245.19
2022-11-22T21:08:39.485Z,99242.13
2022-11-22T21:11:10.125Z,99240.44
2022-11-22T21:13:36.840Z,99244.88
2022-11-22T21:16:15.643Z,99242.31
2022-11-22T21:18:53.706Z,99243.66
2022-11-22T21:21:22.929Z,99241.56
2022-11-22T21:23:51.081Z,99246.50
2022-11-22T21:26:18.083Z,99259.72
2022-11-22T21:28:47.564Z,99262.13
2022-11-22T21:31:14.061Z,99259.00
2022-11-22T21:33:42.438Z,99269.50
2022-11-22T21:36:09.348Z,99269.88
2022-11-22T21:38:38.234Z,99268.66
2022-11-22T21:41:32.340Z,99270.94
2022-11-22T21:43:55.680Z,99265.34
2022-11-22T21:46:22.156Z,99270.84
2022-11-22T21:48:49.910Z,99262.13
2022-11-22T21:51:16.313Z,99264.66
2022-11-22T21:53:42.683Z,99269.28
2022-11-22T21:56:09.112Z,99274.59
2022-11-22T21:58:35.447Z,99268.88
2022-11-22T22:01:03.503Z,99272.50
2022-11-22T22:03:30.530Z,99272.50
2022-11-22T22:05:57.706Z,99277.00
2022-11-22T22:08:29.234Z,99267.56
2022-11-22T22:10:58.668Z,99277.50
2022-11-22T22:13:25.598Z,99273.34
2022-11-22T22:15:57.270Z,99263.47
2022-11-22T22:18:28.734Z,99269.50
2022-11-22T22:21:00.244Z,99272.06
2022-11-22T22:23:26.817Z,99264.56
2022-11-22T22:25:58.477Z,99266.00
2022-11-22T22:28:26.429Z,99266.00
2022-11-22T22:30:52.760Z,99262.63
2022-11-22T22:33:19.122Z,99274.53
2022-11-22T22:35:45.459Z,99274.25
2022-11-22T22:38:11.804Z,99275.69
2022-11-22T22:40:38.163Z,99272.66
2022-11-22T22:43:04.497Z,99279.78
2022-11-22T22:45:30.833Z,99273.50
2022-11-22T22:47:58.114Z,99273.28
2022-11-22T22:50:24.479Z,99281.53
2022-11-22T22:52:50.963Z,99278.75
2022-11-22T22:55:17.319Z,99284.06
2022-11-22T22:57:43.646Z,99285.63
2022-11-22T23:00:10.616Z,99282.25
2022-11-22T23:02:37.047Z,99282.38
2022-11-22T23:05:03.681Z,99278.53
2022-11-22T23:07:30.120Z,99285.41
2022-11-22T23:09:56.605Z,99288.97
2022-11-22T23:12:22.936Z,99290.91
2022-11-22T23:14:49.301Z,99284.38
2022-11-22T23:17:15.638Z,99292.56
2022-11-22T23:19:41.981Z,99292.59
2022-11-22T23:22:08.331Z,99289.09
2022-11-22T23:24:34.698Z,99299.28
2022-11-22T23:27:01.176Z,99305.22
2022-11-22T23:29:27.677Z,99306.69
2022-11-22T23:31:54.102Z,99303.03
2022-11-22T23:34:20.443Z,99302.94
2022-11-22T23:36:46.811Z,99301.59
2022-11-22T23:39:13.199Z,99292.03
2022-11-22T23:41:39.613Z,99298.72
2022-11-22T23:44:07.223Z,99298.09
2022-11-22T23:46:33.704Z,99303.63
2022-11-22T23:49:01.086Z,99300.38
2022-11-22T23:51:29.576Z,99302.78
2022-11-22T23:53:57.837Z,99307.28
2022-11-22T23:56:24.935Z,99309.06
2022-11-22T23:58:51.641Z,99306.25
